sensor_id;sensor_type;location;lat;lon;timestamp;pressure;altitude;pressure_sealevel;temperature;humidity
14383;BME280;7275;50.328;8.720;2023-01-25T00:00:39;101665.81;;;9.59;47.38
14383;BME280;7275;50.328;8.720;2023-01-25T00:03:07;101658.75;;;9.58;47.66
14383;BME280;7275;50.328;8.720;2023-01-25T00:05:34;101651.72;;;9.58;47.35
14383;BME280;7275;50.328;8.720;2023-01-25T00:08:02;101652.59;;;9.60;47.50
14383;BME280;7275;50.328;8.720;2023-01-25T00:10:29;101650.84;;;9.59;47.44
14383;BME280;7275;50.328;8.720;2023-01-25T00:12:57;101650.84;;;9.59;47.36
14383;BME280;7275;50.328;8.720;2023-01-25T00:15:26;101653.47;;;9.58;47.69
14383;BME280;7275;50.328;8.720;2023-01-25T00:17:53;101649.06;;;9.55;47.55
14383;BME280;7275;50.328;8.720;2023-01-25T00:20:21;101643.81;;;9.54;47.80
14383;BME280;7275;50.328;8.720;2023-01-25T00:22:48;101644.69;;;9.51;47.54
14383;BME280;7275;50.328;8.720;2023-01-25T00:25:16;101643.81;;;9.52;47.62
14383;BME280;7275;50.328;8.720;2023-01-25T00:27:43;101642.03;;;9.54;47.89
14383;BME280;7275;50.328;8.720;2023-01-25T00:36:40;101635.00;;;9.55;47.63
14383;BME280;7275;50.328;8.720;2023-01-25T00:39:10;101632.38;;;9.52;47.56
14383;BME280;7275;50.328;8.720;2023-01-25T00:41:38;101636.78;;;9.50;47.77
14383;BME280;7275;50.328;8.720;2023-01-25T00:44:06;101635.00;;;9.47;47.85
14383;BME280;7275;50.328;8.720;2023-01-25T00:46:34;101629.72;;;9.47;47.84
14383;BME280;7275;50.328;8.720;2023-01-25T00:49:03;101620.97;;;9.47;47.52
14383;BME280;7275;50.328;8.720;2023-01-25T00:51:30;101613.91;;;9.49;47.88
14383;BME280;7275;50.328;8.720;2023-01-25T00:53:58;101619.19;;;9.50;47.54
14383;BME280;7275;50.328;8.720;2023-01-25T00:56:25;101629.75;;;9.49;47.54
14383;BME280;7275;50.328;8.720;2023-01-25T00:58:52;101625.38;;;9.45;47.40
14383;BME280;7275;50.328;8.720;2023-01-25T01:01:20;101635.03;;;9.41;47.57
14383;BME280;7275;50.328;8.720;2023-01-25T01:03:50;101631.53;;;9.38;47.52
14383;BME280;7275;50.328;8.720;2023-01-25T01:09:42;101637.69;;;9.34;48.14
14383;BME280;7275;50.328;8.720;2023-01-25T01:12:09;101631.53;;;9.33;47.75
14383;BME280;7275;50.328;8.720;2023-01-25T01:21:22;101635.91;;;9.22;47.92
14383;BME280;7275;50.328;8.720;2023-01-25T01:23:50;101621.84;;;9.25;48.05
14383;BME280;7275;50.328;8.720;2023-01-25T01:26:19;101635.03;;;9.26;48.13
14383;BME280;7275;50.328;8.720;2023-01-25T01:28:47;101631.53;;;9.26;48.24
14383;BME280;7275;50.328;8.720;2023-01-25T01:31:16;101631.53;;;9.26;47.94
14383;BME280;7275;50.328;8.720;2023-01-25T01:33:55;101634.19;;;9.26;48.08
14383;BME280;7275;50.328;8.720;2023-01-25T01:36:25;101631.53;;;9.27;47.79
14383;BME280;7275;50.328;8.720;2023-01-25T01:38:53;101620.97;;;9.27;47.95
14383;BME280;7275;50.328;8.720;2023-01-25T01:41:22;101631.53;;;9.30;47.96
14383;BME280;7275;50.328;8.720;2023-01-25T01:43:50;101623.63;;;9.26;48.02
14383;BME280;7275;50.328;8.720;2023-01-25T01:46:22;101626.25;;;9.26;48.04
14383;BME280;7275;50.328;8.720;2023-01-25T01:48:53;101626.25;;;9.21;48.02
14383;BME280;7275;50.328;8.720;2023-01-25T01:51:28;101624.50;;;9.17;48.04
14383;BME280;7275;50.328;8.720;2023-01-25T01:54:03;101622.75;;;9.16;47.87
14383;BME280;7275;50.328;8.720;2023-01-25T01:56:37;101618.34;;;9.18;47.95
14383;BME280;7275;50.328;8.720;2023-01-25T01:59:07;101611.31;;;9.19;47.93
14383;BME280;7275;50.328;8.720;2023-01-25T02:01:35;101619.22;;;9.19;48.22
14383;BME280;7275;50.328;8.720;2023-01-25T02:04:05;101622.75;;;9.21;47.96
14383;BME280;7275;50.328;8.720;2023-01-25T02:06:38;101617.47;;;9.24;48.19
14383;BME280;7275;50.328;8.720;2023-01-25T02:09:09;101610.44;;;9.26;47.93
14383;BME280;7275;50.328;8.720;2023-01-25T02:11:39;101616.59;;;9.28;47.76
14383;BME280;7275;50.328;8.720;2023-01-25T02:14:07;101613.03;;;9.29;48.06
14383;BME280;7275;50.328;8.720;2023-01-25T02:16:35;101612.16;;;9.31;48.27
14383;BME280;7275;50.328;8.720;2023-01-25T02:19:02;101612.19;;;9.34;47.98
14383;BME280;7275;50.328;8.720;2023-01-25T02:21:36;101606.00;;;9.38;48.20
14383;BME280;7275;50.328;8.720;2023-01-25T02:24:09;101610.41;;;9.38;48.30
14383;BME280;7275;50.328;8.720;2023-01-25T02:26:40;101608.66;;;9.38;48.04
14383;BME280;7275;50.328;8.720;2023-01-25T02:29:08;101613.03;;;9.35;47.85
14383;BME280;7275;50.328;8.720;2023-01-25T02:31:36;101604.25;;;9.31;48.19
14383;BME280;7275;50.328;8.720;2023-01-25T02:34:04;101609.53;;;9.27;48.18
14383;BME280;7275;50.328;8.720;2023-01-25T02:36:33;101606.03;;;9.20;47.90
14383;BME280;7275;50.328;8.720;2023-01-25T02:39:03;101606.03;;;9.17;47.91
14383;BME280;7275;50.328;8.720;2023-01-25T02:41:33;101599.88;;;9.11;48.02
14383;BME280;7275;50.328;8.720;2023-01-25T02:44:04;101598.13;;;9.08;48.14
14383;BME280;7275;50.328;8.720;2023-01-25T02:46:34;101595.47;;;9.04;48.32
14383;BME280;7275;50.328;8.720;2023-01-25T02:49:04;101604.28;;;9.01;48.12
14383;BME280;7275;50.328;8.720;2023-01-25T02:51:33;101601.66;;;8.97;48.25
14383;BME280;7275;50.328;8.720;2023-01-25T02:54:03;101594.63;;;8.93;48.24
14383;BME280;7275;50.328;8.720;2023-01-25T02:56:31;101599.88;;;8.91;48.10
14383;BME280;7275;50.328;8.720;2023-01-25T02:58:59;101601.66;;;8.92;48.26
14383;BME280;7275;50.328;8.720;2023-01-25T03:01:32;101595.50;;;8.92;48.46
14383;BME280;7275;50.328;8.720;2023-01-25T03:04:00;101590.22;;;8.93;48.52
14383;BME280;7275;50.328;8.720;2023-01-25T03:06:27;101591.09;;;8.95;48.19
14383;BME280;7275;50.328;8.720;2023-01-25T03:08:55;101590.22;;;8.98;48.43
14383;BME280;7275;50.328;8.720;2023-01-25T03:11:22;101586.69;;;8.97;48.56
14383;BME280;7275;50.328;8.720;2023-01-25T03:13:50;101580.53;;;8.95;48.53
14383;BME280;7275;50.328;8.720;2023-01-25T03:16:18;101580.53;;;8.95;48.25
14383;BME280;7275;50.328;8.720;2023-01-25T03:18:47;101587.56;;;8.93;48.19
14383;BME280;7275;50.328;8.720;2023-01-25T03:21:16;101580.56;;;8.92;48.49
14383;BME280;7275;50.328;8.720;2023-01-25T03:23:44;101582.31;;;8.95;48.63
14383;BME280;7275;50.328;8.720;2023-01-25T03:26:14;101578.78;;;8.97;48.51
14383;BME280;7275;50.328;8.720;2023-01-25T03:28:42;101577.00;;;8.99;48.24
14383;BME280;7275;50.328;8.720;2023-01-25T03:31:12;101569.97;;;9.01;48.42
14383;BME280;7275;50.328;8.720;2023-01-25T03:33:41;101566.47;;;8.99;48.39
14383;BME280;7275;50.328;8.720;2023-01-25T03:36:10;101566.47;;;8.99;48.36
14383;BME280;7275;50.328;8.720;2023-01-25T03:38:37;101561.19;;;8.98;48.36
14383;BME280;7275;50.328;8.720;2023-01-25T03:41:05;101557.69;;;8.97;48.37
14383;BME280;7275;50.328;8.720;2023-01-25T03:43:33;101553.31;;;8.95;48.36
14383;BME280;7275;50.328;8.720;2023-01-25T03:46:00;101563.84;;;8.93;48.33
14383;BME280;7275;50.328;8.720;2023-01-25T03:48:28;101559.44;;;8.89;48.54
14383;BME280;7275;50.328;8.720;2023-01-25T03:50:58;101558.56;;;8.87;48.49
14383;BME280;7275;50.328;8.720;2023-01-25T03:53:27;101557.69;;;8.85;48.47
14383;BME280;7275;50.328;8.720;2023-01-25T03:55:57;101561.22;;;8.84;48.41
14383;BME280;7275;50.328;8.720;2023-01-25T03:58:26;101554.16;;;8.84;48.49
14383;BME280;7275;50.328;8.720;2023-01-25T04:00:54;101553.31;;;8.85;48.31
14383;BME280;7275;50.328;8.720;2023-01-25T04:03:23;101555.94;;;8.82;48.56
14383;BME280;7275;50.328;8.720;2023-01-25T04:05:51;101555.06;;;8.82;48.47
14383;BME280;7275;50.328;8.720;2023-01-25T04:08:18;101551.53;;;8.77;48.65
14383;BME280;7275;50.328;8.720;2023-01-25T04:10:50;101550.69;;;8.78;48.65
14383;BME280;7275;50.328;8.720;2023-01-25T04:13:18;101551.56;;;8.80;48.78
14383;BME280;7275;50.328;8.720;2023-01-25T04:15:46;101542.75;;;8.79;48.85
14383;BME280;7275;50.328;8.720;2023-01-25T04:18:14;101548.03;;;8.85;48.64
14383;BME280;7275;50.328;8.720;2023-01-25T04:20:42;101546.28;;;8.91;48.70
14383;BME280;7275;50.328;8.720;2023-01-25T04:23:11;101539.22;;;8.91;48.38
14383;BME280;7275;50.328;8.720;2023-01-25T04:25:38;101547.16;;;8.88;48.31
14383;BME280;7275;50.328;8.720;2023-01-25T04:28:07;101539.22;;;8.85;48.55
14383;BME280;7275;50.328;8.720;2023-01-25T04:30:35;101540.13;;;8.85;48.81
14383;BME280;7275;50.328;8.720;2023-01-25T04:33:03;101524.28;;;8.87;48.68
14383;BME280;7275;50.328;8.720;2023-01-25T04:35:31;101527.78;;;8.89;48.38
14383;BME280;7275;50.328;8.720;2023-01-25T04:37:59;101520.75;;;8.91;48.67
14383;BME280;7275;50.328;8.720;2023-01-25T04:40:27;101511.13;;;8.89;48.41
14383;BME280;7275;50.328;8.720;2023-01-25T04:42:55;101515.50;;;8.86;48.51
14383;BME280;7275;50.328;8.720;2023-01-25T04:45:24;101512.88;;;8.88;48.42
14383;BME280;7275;50.328;8.720;2023-01-25T04:47:55;101514.63;;;8.89;48.60
14383;BME280;7275;50.328;8.720;2023-01-25T04:50:23;101507.56;;;8.86;48.42
14383;BME280;7275;50.328;8.720;2023-01-25T04:52:51;101507.59;;;8.82;48.61
14383;BME280;7275;50.328;8.720;2023-01-25T04:55:19;101505.84;;;8.79;48.40
14383;BME280;7275;50.328;8.720;2023-01-25T04:57:48;101510.22;;;8.80;48.50
14383;BME280;7275;50.328;8.720;2023-01-25T05:00:16;101512.00;;;8.80;48.79
14383;BME280;7275;50.328;8.720;2023-01-25T05:02:45;101500.59;;;8.78;48.52
14383;BME280;7275;50.328;8.720;2023-01-25T05:05:13;101500.56;;;8.79;48.81
14383;BME280;7275;50.328;8.720;2023-01-25T05:07:41;101497.94;;;8.79;48.52
14383;BME280;7275;50.328;8.720;2023-01-25T05:10:10;101492.69;;;8.78;48.77
14383;BME280;7275;50.328;8.720;2023-01-25T05:12:37;101489.16;;;8.76;48.67
14383;BME280;7275;50.328;8.720;2023-01-25T05:15:06;101493.53;;;8.72;48.75
14383;BME280;7275;50.328;8.720;2023-01-25T05:17:34;101485.63;;;8.72;48.56
14383;BME280;7275;50.328;8.720;2023-01-25T05:20:03;101483.88;;;8.74;48.74
14383;BME280;7275;50.328;8.720;2023-01-25T05:22:31;101486.50;;;8.74;48.54
14383;BME280;7275;50.328;8.720;2023-01-25T05:24:58;101489.16;;;8.73;48.80
14383;BME280;7275;50.328;8.720;2023-01-25T05:27:27;101482.09;;;8.72;48.79
14383;BME280;7275;50.328;8.720;2023-01-25T05:29:54;101481.22;;;8.70;48.71
14383;BME280;7275;50.328;8.720;2023-01-25T05:32:22;101486.50;;;8.70;48.89
14383;BME280;7275;50.328;8.720;2023-01-25T05:34:50;101480.38;;;8.71;48.64
14383;BME280;7275;50.328;8.720;2023-01-25T05:37:20;101478.59;;;8.74;48.61
14383;BME280;7275;50.328;8.720;2023-01-25T05:39:47;101480.38;;;8.80;48.49
14383;BME280;7275;50.328;8.720;2023-01-25T05:42:16;101477.72;;;8.86;48.66
14383;BME280;7275;50.328;8.720;2023-01-25T05:44:44;101479.44;;;8.92;48.59
14383;BME280;7275;50.328;8.720;2023-01-25T05:47:15;101482.97;;;8.97;48.61
14383;BME280;7275;50.328;8.720;2023-01-25T05:49:43;101480.31;;;9.00;48.40
14383;BME280;7275;50.328;8.720;2023-01-25T05:52:12;101475.91;;;9.02;48.28
14383;BME280;7275;50.328;8.720;2023-01-25T05:54:41;101477.66;;;9.01;48.43
14383;BME280;7275;50.328;8.720;2023-01-25T05:57:09;101473.28;;;9.00;48.66
14383;BME280;7275;50.328;8.720;2023-01-25T05:59:36;101484.72;;;9.01;48.31
14383;BME280;7275;50.328;8.720;2023-01-25T06:02:03;101480.28;;;9.01;48.32
14383;BME280;7275;50.328;8.720;2023-01-25T06:04:31;101488.22;;;9.03;48.37
14383;BME280;7275;50.328;8.720;2023-01-25T06:06:59;101476.78;;;9.04;48.25
14383;BME280;7275;50.328;8.720;2023-01-25T06:09:26;101470.63;;;9.02;48.26
14383;BME280;7275;50.328;8.720;2023-01-25T06:11:55;101475.94;;;8.99;48.47
14383;BME280;7275;50.328;8.720;2023-01-25T06:14:22;101476.78;;;8.98;48.51
14383;BME280;7275;50.328;8.720;2023-01-25T06:16:50;101479.44;;;8.96;48.61
14383;BME280;7275;50.328;8.720;2023-01-25T06:19:17;101468.91;;;8.95;48.64
14383;BME280;7275;50.328;8.720;2023-01-25T06:21:45;101475.06;;;8.92;48.62
14383;BME280;7275;50.328;8.720;2023-01-25T06:24:12;101475.94;;;8.86;48.24
14383;BME280;7275;50.328;8.720;2023-01-25T06:26:40;101475.97;;;8.82;48.67
14383;BME280;7275;50.328;8.720;2023-01-25T06:29:09;101483.00;;;8.77;48.72
14383;BME280;7275;50.328;8.720;2023-01-25T06:31:36;101480.38;;;8.74;48.42
14383;BME280;7275;50.328;8.720;2023-01-25T06:34:04;101490.03;;;8.73;48.51
14383;BME280;7275;50.328;8.720;2023-01-25T06:36:33;101475.09;;;8.74;48.57
14383;BME280;7275;50.328;8.720;2023-01-25T06:39:01;101481.22;;;8.79;48.62
14383;BME280;7275;50.328;8.720;2023-01-25T06:41:28;101476.84;;;8.84;48.52
14383;BME280;7275;50.328;8.720;2023-01-25T06:43:56;101482.09;;;8.87;48.58
14383;BME280;7275;50.328;8.720;2023-01-25T06:46:24;101475.06;;;8.88;48.62
14383;BME280;7275;50.328;8.720;2023-01-25T06:48:52;101476.81;;;8.87;48.68
14383;BME280;7275;50.328;8.720;2023-01-25T06:51:19;101482.13;;;8.84;48.38
14383;BME280;7275;50.328;8.720;2023-01-25T06:53:47;101483.84;;;8.80;48.61
14383;BME280;7275;50.328;8.720;2023-01-25T06:56:16;101477.72;;;8.77;48.76
14383;BME280;7275;50.328;8.720;2023-01-25T06:58:44;101481.22;;;8.79;48.82
14383;BME280;7275;50.328;8.720;2023-01-25T07:01:13;101480.34;;;8.78;48.67
14383;BME280;7275;50.328;8.720;2023-01-25T07:03:43;101482.13;;;8.75;48.60
14383;BME280;7275;50.328;8.720;2023-01-25T07:06:13;101477.75;;;8.69;48.56
14383;BME280;7275;50.328;8.720;2023-01-25T07:08:41;101474.25;;;8.61;48.72
14383;BME280;7275;50.328;8.720;2023-01-25T07:11:10;101476.84;;;8.60;48.73
14383;BME280;7275;50.328;8.720;2023-01-25T07:13:39;101478.63;;;8.58;48.86
14383;BME280;7275;50.328;8.720;2023-01-25T07:16:11;101476.00;;;8.59;48.78
14383;BME280;7275;50.328;8.720;2023-01-25T07:18:39;101476.88;;;8.61;48.81
14383;BME280;7275;50.328;8.720;2023-01-25T07:21:13;101476.84;;;8.64;49.04
14383;BME280;7275;50.328;8.720;2023-01-25T07:23:41;101477.72;;;8.68;48.87
14383;BME280;7275;50.328;8.720;2023-01-25T07:26:14;101472.47;;;8.69;48.82
14383;BME280;7275;50.328;8.720;2023-01-25T07:28:43;101467.19;;;8.69;48.59
14383;BME280;7275;50.328;8.720;2023-01-25T07:31:10;101465.44;;;8.71;48.91
14383;BME280;7275;50.328;8.720;2023-01-25T07:33:38;101458.38;;;8.72;48.80
14383;BME280;7275;50.328;8.720;2023-01-25T07:36:09;101456.63;;;8.71;48.80
14383;BME280;7275;50.328;8.720;2023-01-25T07:38:37;101457.53;;;8.71;48.62
14383;BME280;7275;50.328;8.720;2023-01-25T07:41:04;101458.41;;;8.73;48.62
14383;BME280;7275;50.328;8.720;2023-01-25T07:43:32;101457.50;;;8.74;48.64
14383;BME280;7275;50.328;8.720;2023-01-25T07:46:00;101453.13;;;8.73;48.61
14383;BME280;7275;50.328;8.720;2023-01-25T07:48:28;101453.13;;;8.70;48.84
14383;BME280;7275;50.328;8.720;2023-01-25T07:50:57;101457.50;;;8.68;48.79
14383;BME280;7275;50.328;8.720;2023-01-25T07:53:39;101457.53;;;8.67;48.88
14383;BME280;7275;50.328;8.720;2023-01-25T07:56:09;101460.16;;;8.68;48.98
14383;BME280;7275;50.328;8.720;2023-01-25T07:58:37;101459.25;;;8.72;48.78
14383;BME280;7275;50.328;8.720;2023-01-25T08:01:06;101452.25;;;8.76;48.85
14383;BME280;7275;50.328;8.720;2023-01-25T08:03:33;101458.38;;;8.79;48.70
14383;BME280;7275;50.328;8.720;2023-01-25T08:06:01;101464.53;;;8.81;48.52
14383;BME280;7275;50.328;8.720;2023-01-25T08:08:31;101460.16;;;8.82;48.73
14383;BME280;7275;50.328;8.720;2023-01-25T08:11:06;101464.53;;;8.83;48.71
14383;BME280;7275;50.328;8.720;2023-01-25T08:13:34;101461.88;;;8.83;48.46
14383;BME280;7275;50.328;8.720;2023-01-25T08:16:02;101469.81;;;8.86;48.46
14383;BME280;7275;50.328;8.720;2023-01-25T08:18:29;101470.66;;;8.86;48.71
14383;BME280;7275;50.328;8.720;2023-01-25T08:20:57;101468.03;;;8.85;48.63
14383;BME280;7275;50.328;8.720;2023-01-25T08:23:25;101473.31;;;8.83;48.39
14383;BME280;7275;50.328;8.720;2023-01-25T08:25:52;101464.53;;;8.83;48.63
14383;BME280;7275;50.328;8.720;2023-01-25T08:28:23;101465.41;;;8.82;48.66
14383;BME280;7275;50.328;8.720;2023-01-25T08:30:50;101459.25;;;8.78;48.75
14383;BME280;7275;50.328;8.720;2023-01-25T08:33:23;101464.53;;;8.77;48.64
14383;BME280;7275;50.328;8.720;2023-01-25T08:35:54;101465.44;;;8.76;48.67
14383;BME280;7275;50.328;8.720;2023-01-25T08:38:22;101462.81;;;8.71;48.64
14383;BME280;7275;50.328;8.720;2023-01-25T08:40:49;101456.66;;;8.69;48.75
14383;BME280;7275;50.328;8.720;2023-01-25T08:43:17;101452.25;;;8.67;48.71
14383;BME280;7275;50.328;8.720;2023-01-25T08:45:46;101446.97;;;8.64;48.87
14383;BME280;7275;50.328;8.720;2023-01-25T08:48:14;101449.63;;;8.61;48.85
14383;BME280;7275;50.328;8.720;2023-01-25T08:50:44;101443.47;;;8.57;48.61
14383;BME280;7275;50.328;8.720;2023-01-25T08:53:12;101443.47;;;8.56;49.10
14383;BME280;7275;50.328;8.720;2023-01-25T08:55:40;101441.72;;;8.56;49.01
14383;BME280;7275;50.328;8.720;2023-01-25T08:58:09;101439.94;;;8.55;49.02
14383;BME280;7275;50.328;8.720;2023-01-25T09:00:37;101446.13;;;8.59;48.79
14383;BME280;7275;50.328;8.720;2023-01-25T09:03:05;101443.47;;;8.65;49.03
14383;BME280;7275;50.328;8.720;2023-01-25T09:05:34;101441.72;;;8.71;48.80
14383;BME280;7275;50.328;8.720;2023-01-25T09:08:02;101440.81;;;8.77;48.78
14383;BME280;7275;50.328;8.720;2023-01-25T09:10:32;101440.81;;;8.80;48.89
14383;BME280;7275;50.328;8.720;2023-01-25T09:13:00;101439.94;;;8.78;48.67
14383;BME280;7275;50.328;8.720;2023-01-25T09:15:27;101444.34;;;8.76;48.81
14383;BME280;7275;50.328;8.720;2023-01-25T09:17:55;101432.03;;;8.70;49.10
14383;BME280;7275;50.328;8.720;2023-01-25T09:20:24;101429.41;;;8.69;48.71
14383;BME280;7275;50.328;8.720;2023-01-25T09:22:53;101422.34;;;8.68;48.90
14383;BME280;7275;50.328;8.720;2023-01-25T09:25:21;101425.91;;;8.65;48.77
14383;BME280;7275;50.328;8.720;2023-01-25T09:27:48;101429.44;;;8.61;48.73
14383;BME280;7275;50.328;8.720;2023-01-25T09:30:17;101430.31;;;8.59;49.09
14383;BME280;7275;50.328;8.720;2023-01-25T09:32:47;101422.38;;;8.56;48.85
14383;BME280;7275;50.328;8.720;2023-01-25T09:35:15;101422.41;;;8.54;49.01
14383;BME280;7275;50.328;8.720;2023-01-25T09:37:44;101425.91;;;8.56;49.06
14383;BME280;7275;50.328;8.720;2023-01-25T09:40:16;101425.03;;;8.60;49.08
14383;BME280;7275;50.328;8.720;2023-01-25T09:42:55;101425.03;;;8.65;48.82
14383;BME280;7275;50.328;8.720;2023-01-25T09:45:31;101427.63;;;8.66;48.70
14383;BME280;7275;50.328;8.720;2023-01-25T09:48:07;101422.41;;;8.63;48.84
14383;BME280;7275;50.328;8.720;2023-01-25T09:50:40;101419.75;;;8.62;49.03
14383;BME280;7275;50.328;8.720;2023-01-25T09:53:25;101421.50;;;8.58;48.91
14383;BME280;7275;50.328;8.720;2023-01-25T09:55:59;101417.13;;;8.53;48.70
14383;BME280;7275;50.328;8.720;2023-01-25T09:58:31;101416.25;;;8.52;49.07
14383;BME280;7275;50.328;8.720;2023-01-25T10:01:08;101405.69;;;8.55;48.97
14383;BME280;7275;50.328;8.720;2023-01-25T10:03:45;101408.31;;;8.55;48.87
14383;BME280;7275;50.328;8.720;2023-01-25T10:06:15;101406.56;;;8.60;48.91
14383;BME280;7275;50.328;8.720;2023-01-25T10:08:51;101405.66;;;8.66;48.89
14383;BME280;7275;50.328;8.720;2023-01-25T10:11:24;101395.09;;;8.75;48.85
14383;BME280;7275;50.328;8.720;2023-01-25T10:13:52;101389.81;;;8.82;48.84
14383;BME280;7275;50.328;8.720;2023-01-25T10:16:24;101388.94;;;8.88;48.90
14383;BME280;7275;50.328;8.720;2023-01-25T10:19:04;101381.91;;;8.89;48.64
14383;BME280;7275;50.328;8.720;2023-01-25T10:21:34;101381.00;;;8.90;48.75
14383;BME280;7275;50.328;8.720;2023-01-25T10:24:20;101377.50;;;8.88;48.58
14383;BME280;7275;50.328;8.720;2023-01-25T10:26:54;101381.00;;;8.85;48.55
14383;BME280;7275;50.328;8.720;2023-01-25T10:29:26;101380.13;;;8.83;48.94
14383;BME280;7275;50.328;8.720;2023-01-25T10:31:58;101372.25;;;8.78;48.95
14383;BME280;7275;50.328;8.720;2023-01-25T10:34:30;101372.25;;;8.78;48.75
14383;BME280;7275;50.328;8.720;2023-01-25T10:37:11;101368.75;;;8.78;49.05
14383;BME280;7275;50.328;8.720;2023-01-25T10:39:48;101367.84;;;8.80;48.83
14383;BME280;7275;50.328;8.720;2023-01-25T10:42:21;101356.41;;;8.83;48.98
14383;BME280;7275;50.328;8.720;2023-01-25T10:44:50;101355.50;;;8.87;48.92
14383;BME280;7275;50.328;8.720;2023-01-25T10:47:22;101354.63;;;8.91;48.69
14383;BME280;7275;50.328;8.720;2023-01-25T10:49:51;101352.88;;;8.95;48.83
14383;BME280;7275;50.328;8.720;2023-01-25T10:52:21;101350.22;;;8.95;48.90
14383;BME280;7275;50.328;8.720;2023-01-25T10:55:06;101344.06;;;8.94;48.46
14383;BME280;7275;50.328;8.720;2023-01-25T10:57:41;101334.38;;;8.93;48.55
14383;BME280;7275;50.328;8.720;2023-01-25T11:00:22;101338.81;;;8.93;48.50
14383;BME280;7275;50.328;8.720;2023-01-25T11:02:50;101340.56;;;8.92;48.40
14383;BME280;7275;50.328;8.720;2023-01-25T11:05:31;101332.63;;;8.94;48.53
14383;BME280;7275;50.328;8.720;2023-01-25T11:08:19;101331.75;;;8.96;48.44
14383;BME280;7275;50.328;8.720;2023-01-25T11:10:50;101321.19;;;8.98;48.39
14383;BME280;7275;50.328;8.720;2023-01-25T11:13:20;101325.56;;;9.00;48.42
14383;BME280;7275;50.328;8.720;2023-01-25T11:15:49;101318.53;;;9.01;48.34
14383;BME280;7275;50.328;8.720;2023-01-25T11:18:20;101314.13;;;9.03;48.20
14383;BME280;7275;50.328;8.720;2023-01-25T11:21:03;101312.38;;;9.05;48.50
14383;BME280;7275;50.328;8.720;2023-01-25T11:23:31;101304.44;;;9.09;48.39
14383;BME280;7275;50.328;8.720;2023-01-25T11:26:15;101300.00;;;9.10;48.53
14383;BME280;7275;50.328;8.720;2023-01-25T11:28:44;101297.38;;;9.10;48.54
14383;BME280;7275;50.328;8.720;2023-01-25T11:31:16;101291.22;;;9.11;48.39
14383;BME280;7275;50.328;8.720;2023-01-25T11:33:46;101284.19;;;9.11;48.38
14383;BME280;7275;50.328;8.720;2023-01-25T11:36:21;101273.66;;;9.11;48.55
14383;BME280;7275;50.328;8.720;2023-01-25T11:39:04;101280.69;;;9.09;48.42
14383;BME280;7275;50.328;8.720;2023-01-25T11:41:41;101268.38;;;9.08;48.55
14383;BME280;7275;50.328;8.720;2023-01-25T11:47:34;101261.28;;;9.15;48.47
14383;BME280;7275;50.328;8.720;2023-01-25T11:50:12;101247.19;;;9.16;48.50
14383;BME280;7275;50.328;8.720;2023-01-25T11:53:08;101240.19;;;9.18;48.17
14383;BME280;7275;50.328;8.720;2023-01-25T11:55:46;101244.56;;;9.19;48.63
14383;BME280;7275;50.328;8.720;2023-01-25T11:58:28;101235.78;;;9.20;48.29
14383;BME280;7275;50.328;8.720;2023-01-25T12:01:12;101235.75;;;9.21;48.39
14383;BME280;7275;50.328;8.720;2023-01-25T12:04:06;101230.53;;;9.15;48.36
14383;BME280;7275;50.328;8.720;2023-01-25T12:06:50;101214.75;;;9.09;48.67
14383;BME280;7275;50.328;8.720;2023-01-25T12:09:28;101215.63;;;9.08;48.51
14383;BME280;7275;50.328;8.720;2023-01-25T12:12:06;101213.00;;;9.07;48.85
14383;BME280;7275;50.328;8.720;2023-01-25T12:14:47;101205.03;;;9.10;48.39
14383;BME280;7275;50.328;8.720;2023-01-25T12:17:28;101206.81;;;9.11;48.57
14383;BME280;7275;50.328;8.720;2023-01-25T12:20:10;101194.47;;;9.14;48.43
14383;BME280;7275;50.328;8.720;2023-01-25T12:22:48;101189.19;;;9.17;48.42
14383;BME280;7275;50.328;8.720;2023-01-25T12:25:22;101187.38;;;9.21;48.38
14383;BME280;7275;50.328;8.720;2023-01-25T12:28:03;101185.59;;;9.23;48.25
14383;BME280;7275;50.328;8.720;2023-01-25T12:30:42;101186.50;;;9.22;48.23
14383;BME280;7275;50.328;8.720;2023-01-25T12:33:14;101183.88;;;9.22;47.98
14383;BME280;7275;50.328;8.720;2023-01-25T12:35:48;101178.56;;;9.23;48.18
14383;BME280;7275;50.328;8.720;2023-01-25T12:38:24;101166.28;;;9.21;48.38
14383;BME280;7275;50.328;8.720;2023-01-25T12:40:55;101161.03;;;9.16;48.31
14383;BME280;7275;50.328;8.720;2023-01-25T12:43:29;101153.16;;;9.10;48.22
14383;BME280;7275;50.328;8.720;2023-01-25T12:46:00;101154.09;;;9.05;48.63
14383;BME280;7275;50.328;8.720;2023-01-25T12:48:34;101148.84;;;9.00;48.26
14383;BME280;7275;50.328;8.720;2023-01-25T12:51:07;101154.16;;;8.96;48.75
14383;BME280;7275;50.328;8.720;2023-01-25T12:53:37;101152.44;;;8.95;48.62
14383;BME280;7275;50.328;8.720;2023-01-25T12:56:08;101146.28;;;8.93;48.97
14383;BME280;7275;50.328;8.720;2023-01-25T12:58:45;101141.03;;;8.93;48.68
14383;BME280;7275;50.328;8.720;2023-01-25T13:01:20;101132.25;;;8.91;48.58
14383;BME280;7275;50.328;8.720;2023-01-25T13:04:01;101127.84;;;8.86;48.69
14383;BME280;7275;50.328;8.720;2023-01-25T13:06:36;101119.97;;;8.85;48.82
14383;BME280;7275;50.328;8.720;2023-01-25T13:09:12;101108.53;;;8.83;48.51
14383;BME280;7275;50.328;8.720;2023-01-25T13:11:43;101098.03;;;8.81;48.90
14383;BME280;7275;50.328;8.720;2023-01-25T13:14:27;101090.97;;;8.83;48.97
14383;BME280;7275;50.328;8.720;2023-01-25T13:17:09;101088.34;;;8.82;48.66
14383;BME280;7275;50.328;8.720;2023-01-25T13:19:39;101088.34;;;8.80;48.63
14383;BME280;7275;50.328;8.720;2023-01-25T13:22:09;101085.72;;;8.79;48.80
14383;BME280;7275;50.328;8.720;2023-01-25T13:25:07;101081.34;;;8.76;48.32
14383;BME280;7275;50.328;8.720;2023-01-25T13:27:44;101076.13;;;8.73;48.70
14383;BME280;7275;50.328;8.720;2023-01-25T13:30:26;101076.09;;;8.72;48.64
14383;BME280;7275;50.328;8.720;2023-01-25T13:32:58;101076.16;;;8.69;48.81
14383;BME280;7275;50.328;8.720;2023-01-25T13:35:35;101069.13;;;8.66;48.85
14383;BME280;7275;50.328;8.720;2023-01-25T13:38:23;101063.03;;;8.63;49.13
14383;BME280;7275;50.328;8.720;2023-01-25T13:41:14;101064.75;;;8.64;49.23
14383;BME280;7275;50.328;8.720;2023-01-25T13:43:46;101060.34;;;8.67;48.98
14383;BME280;7275;50.328;8.720;2023-01-25T13:46:17;101055.06;;;8.69;48.77
14383;BME280;7275;50.328;8.720;2023-01-25T13:49:13;101051.53;;;8.70;48.96